Data for 08/21/2009

Time Sea-Level Adjusted Pressure Absolute Pressure Temperature Relative Humidity Dew Point   
(mb) (inHg) (mb) (inHg) (C) (F) (%) (C) (F)
00:05 1022 30.18 851 25.13 18.8 65.8 46 6.9 44.4
00:10 1022 30.18 851 25.13 18.7 65.7 46 6.9 44.3
00:15 1022 30.18 851 25.13 18.6 65.6 46 6.8 44.3
00:20 1022 30.18 851 25.13 18.6 65.4 46 6.8 44.2
00:25 1022 30.18 851 25.13 18.5 65.3 46 6.8 44.2
00:30 1022 30.18 851 25.13 18.5 65.3 46 6.7 44.1
00:35 1021 30.15 851 25.13 18.5 65.3 46 6.9 44.4
00:40 1022 30.18 851 25.13 18.4 65.1 46 6.8 44.3
00:45 1022 30.18 851 25.13 18.3 65 46 6.7 44.1
00:50 1022 30.18 851 25.13 18.3 65 47 6.8 44.2
00:55 1022 30.18 851 25.13 18.3 64.9 47 6.8 44.2
01:00 1022 30.18 851 25.13 18.2 64.8 47 6.8 44.3
01:05 1022 30.18 851 25.13 18.1 64.7 47 6.8 44.2
01:10 1022 30.18 851 25.13 18.1 64.6 47 6.7 44.1
01:15 1022 30.18 851 25.13 18.1 64.5 47 6.8 44.3
01:20 1022 30.18 851 25.13 18 64.3 48 6.8 44.2
01:25 1022 30.18 851 25.13 17.9 64.1 48 6.8 44.2
01:30 1022 30.18 851 25.13 17.8 64 48 6.7 44.1
01:35 1022 30.18 851 25.13 17.7 63.8 49 6.8 44.3
01:40 1022 30.18 851 25.13 17.6 63.6 48 6.6 43.9
01:45 1022 30.18 851 25.13 17.5 63.5 48 6.6 43.9
01:50 1022 30.18 851 25.13 17.5 63.5 48 6.6 43.9
01:55 1022 30.18 851 25.13 17.5 63.4 49 6.7 44
02:00 1022 30.18 851 25.13 17.3 63.2 49 6.6 43.8
02:05 1022 30.18 851 25.13 17.3 63.1 49 6.6 43.8
02:10 1022 30.18 851 25.13 17.2 63 49 6.6 43.9
02:15 1022 30.18 851 25.13 17.1 62.9 49 6.6 43.8
02:20 1022 30.18 851 25.13 17.1 62.9 49 6.6 43.8
02:25 1022 30.18 851 25.13 17.1 62.7 50 6.6 43.9
02:30 1022 30.18 851 25.13 17 62.7 50 6.5 43.8
02:35 1022 30.18 851 25.13 17 62.5 50 6.6 43.9
02:40 1022 30.18 851 25.13 16.8 62.3 50 6.6 43.8
02:45 1022 30.18 851 25.13 16.7 62.1 51 6.6 43.9
02:50 1022 30.18 851 25.13 16.7 62 51 6.6 43.9
02:55 1022 30.18 851 25.13 16.5 61.8 51 6.6 43.8
03:00 1022 30.18 851 25.13 16.4 61.6 52 6.6 43.9
03:05 1022 30.18 851 25.13 16.3 61.3 52 6.6 43.8
03:10 1022 30.18 851 25.13 16.2 61.2 52 6.5 43.8
03:15 1022 30.18 851 25.13 16.1 61 53 6.5 43.8
03:20 1022 30.18 851 25.13 16 60.8 53 6.5 43.7
03:25 1022 30.18 851 25.13 15.9 60.7 53 6.4 43.6
03:30 1022 30.18 851 25.13 15.9 60.6 53 6.3 43.3
03:35 1022 30.18 851 25.13 15.8 60.5 53 6.3 43.4
03:40 1022 30.18 851 25.13 15.7 60.3 53 6.3 43.4
03:45 1022 30.18 851 25.13 15.6 60.1 53 6.3 43.3
03:50 1022 30.18 851 25.13 15.5 60 54 6.3 43.3
03:55 1022 30.18 851 25.13 15.5 59.8 54 6.3 43.3
04:00 1022 30.18 851 25.13 15.4 59.6 53 6 42.8
04:05 1022 30.18 851 25.13 15.4 59.6 54 6.1 43
04:10 1021 30.15 851 25.13 15.3 59.6 54 6.1 42.9
04:15 1021 30.15 851 25.13 15.4 59.7 53 6 42.8
04:20 1021 30.15 851 25.13 15.4 59.8 53 6 42.7
04:25 1021 30.15 851 25.13 15.3 59.6 53 6 42.8
04:30 1021 30.15 851 25.13 15.3 59.5 53 5.9 42.6
04:35 1021 30.15 851 25.13 15.4 59.7 53 5.8 42.5
04:40 1021 30.15 850 25.1 15.4 59.7 53 5.8 42.5
04:45 1021 30.15 850 25.1 15.4 59.7 53 5.8 42.5
04:50 1021 30.15 850 25.1 15.5 59.8 52 5.8 42.4
04:55 1021 30.15 850 25.1 15.5 59.9 52 5.8 42.4
05:00 1021 30.15 850 25.1 15.5 59.8 53 5.9 42.6
05:05 1021 30.15 850 25.1 15.4 59.6 52 5.8 42.4
05:10 1021 30.15 850 25.1 15.4 59.7 53 5.8 42.5
05:15 1021 30.15 850 25.1 15.3 59.6 53 5.8 42.4
05:20 1021 30.15 850 25.1 15.3 59.5 53 5.8 42.4
05:25 1021 30.15 850 25.1 15.3 59.5 53 5.8 42.5
05:30 1021 30.15 850 25.1 15.2 59.4 53 5.8 42.4
05:35 1021 30.15 850 25.1 15.2 59.3 53 5.8 42.4
05:40 1021 30.15 850 25.1 15.2 59.3 53 5.7 42.2
05:45 1021 30.15 850 25.1 15.1 59.2 54 5.9 42.6
05:50 1021 30.15 850 25.1 15 59 54 5.9 42.7
05:55 1021 30.15 850 25.1 15 58.9 53 5.7 42.2
06:00 1021 30.15 850 25.1 15 59 54 5.9 42.6
06:05 1021 30.15 850 25.1 14.9 58.9 54 5.7 42.3
06:10 1021 30.15 850 25.1 14.9 58.8 54 5.8 42.4
06:15 1021 30.15 850 25.1 14.9 58.7 54 5.8 42.4
06:20 1021 30.15 850 25.1 14.8 58.6 55 5.8 42.4
06:25 1021 30.15 850 25.1 14.7 58.4 55 5.9 42.6
06:30 1021 30.15 850 25.1 14.6 58.3 55 5.8 42.5
06:35 1021 30.15 850 25.1 14.7 58.4 57 6.3 43.4
06:40 1021 30.15 850 25.1 14.6 58.2 56 5.9 42.7
06:45 1021 30.15 850 25.1 14.5 58.2 55 5.8 42.4
06:50 1021 30.15 850 25.1 14.8 58.6 55 5.8 42.5
06:55 1021 30.15 850 25.1 14.8 58.7 55 5.9 42.7
07:00 1021 30.15 850 25.1 14.9 58.8 54 5.8 42.5
07:05 1021 30.15 850 25.1 15.1 59.1 54 5.8 42.5
07:10 1021 30.15 850 25.1 15.2 59.4 54 5.9 42.7
07:15 1021 30.15 850 25.1 15.1 59.2 55 6.2 43.2
07:20 1021 30.15 850 25.1 15 59 55 6.2 43.1
07:25 1021 30.15 850 25.1 15 59.1 55 6 42.9
07:30 1021 30.15 850 25.1 15.2 59.4 54 6 42.8
07:35 1021 30.15 850 25.1 15.4 59.8 54 6.2 43.1
07:40 1021 30.15 850 25.1 15.6 60 53 6.2 43.2
07:45 1021 30.15 851 25.13 15.8 60.4 53 6.4 43.6
07:50 1021 30.15 851 25.13 15.9 60.5 54 6.5 43.7
07:55 1021 30.15 851 25.13 15.7 60.2 54 6.4 43.5
08:00 1021 30.15 851 25.13 15.7 60.2 53 6.3 43.4
08:05 1022 30.18 851 25.13 15.9 60.5 53 6.3 43.4
08:10 1022 30.18 851 25.13 16.2 61.1 52 6.3 43.3
08:15 1022 30.18 851 25.13 16.4 61.5 52 6.5 43.7
08:20 1022 30.18 851 25.13 16.6 61.9 52 6.7 44.1
08:25 1022 30.18 851 25.13 16.7 62 52 6.9 44.5
08:30 1022 30.18 851 25.13 16.7 62 52 6.8 44.2
08:35 1022 30.18 851 25.13 16.8 62.2 51 6.8 44.2
08:40 1022 30.18 851 25.13 17.2 63 50 6.8 44.3
08:45 1022 30.18 851 25.13 17.5 63.4 49 6.9 44.4
08:50 1022 30.18 851 25.13 17.8 64.1 49 7 44.6
08:55 1022 30.18 851 25.13 18.6 65.4 46 7 44.6
09:00 1022 30.18 851 25.13 18.8 65.8 47 7.4 45.3
09:05 1022 30.18 851 25.13 18.9 66.1 47 7.6 45.7
09:10 1022 30.18 851 25.13 19.1 66.3 47 7.7 45.8
09:15 1022 30.18 851 25.13 18.7 65.7 47 7.5 45.4
09:20 1021 30.15 851 25.13 19 66.2 48 8 46.4
09:25 1021 30.15 851 25.13 19.7 67.4 47 8 46.5
09:30 1021 30.15 851 25.13 19.4 66.9 47 7.9 46.2
09:35 1021 30.15 851 25.13 20.2 68.4 45 8.1 46.7
09:40 1021 30.15 851 25.13 20.3 68.5 44 7.7 45.8
09:45 1021 30.15 851 25.13 20.8 69.5 44 8.3 47
09:50 1021 30.15 851 25.13 21.4 70.6 40 7.5 45.5
09:55 1021 30.15 851 25.13 21.7 71.1 40 7.6 45.7
10:00 1021 30.15 851 25.13 21.9 71.5 38 7.3 45.1
10:05 1022 30.18 851 25.13 21.1 70 39 6.9 44.4
10:10 1021 30.15 851 25.13 21.4 70.5 39 7 44.6
10:15 1021 30.15 851 25.13 22.2 71.9 38 7.5 45.5
10:20 1021 30.15 851 25.13 22.6 72.6 38 7.8 46
10:25 1021 30.15 851 25.13 22.7 72.9 37 7.6 45.7
10:30 1021 30.15 851 25.13 23.7 74.6 35 7.6 45.6
10:35 1022 30.18 851 25.13 24 75.2 36 8.4 47.1
10:40 1022 30.18 851 25.13 22.8 73 39 8.3 47
10:45 1022 30.18 851 25.13 23.6 74.4 37 8.2 46.7
10:50 1021 30.15 851 25.13 23 73.5 39 8.3 47
10:55 1021 30.15 851 25.13 22.8 73 38 8.1 46.6
11:00 1021 30.15 851 25.13 23.3 73.9 36 7.5 45.5
11:05 1021 30.15 851 25.13 24.2 75.5 36 8.2 46.8
11:10 1021 30.15 851 25.13 24.1 75.4 34 7.4 45.3
11:15 1021 30.15 851 25.13 24.4 75.9 33 7.1 44.8
11:20 1021 30.15 851 25.13 24.7 76.5 33 7.7 45.8
11:25 1021 30.15 851 25.13 24.7 76.4 33 7.4 45.4
11:30 1021 30.15 850 25.1 24.9 76.9 33 7.9 46.3
11:35 1021 30.15 850 25.1 25.2 77.3 33 7.9 46.2
11:40 1021 30.15 850 25.1 25.9 78.6 33 8.6 47.5
11:45 1021 30.15 850 25.1 25.4 77.7 32 7.6 45.7
11:50 1021 30.15 850 25.1 25.2 77.4 31 7.1 44.7
11:55 1021 30.15 850 25.1 25.1 77.1 32 7.3 45.1
12:00 1021 30.15 850 25.1 25.3 77.5 31 7.2 45
12:05 1021 30.15 850 25.1 25.9 78.5 30 7.2 44.9
12:10 1021 30.15 850 25.1 26.6 79.9 31 8.2 46.7
12:15 1021 30.15 850 25.1 26.7 80 31 8.2 46.7
12:20 1021 30.15 850 25.1 26.4 79.4 32 8.4 47.2
12:25 1021 30.15 850 25.1 26.5 79.6 31 8.1 46.5
12:30 1021 30.15 850 25.1 27.2 80.9 30 8.6 47.5
12:35 1021 30.15 850 25.1 27.4 81.3 31 9.1 48.4
12:40 1021 30.15 850 25.1 26.3 79.4 31 8.2 46.8
12:45 1021 30.15 850 25.1 26.8 80.3 30 7.8 46.1
12:50 1021 30.15 850 25.1 27.5 81.4 29 8.1 46.5
12:55 1021 30.15 850 25.1 27.8 82 29 8.3 46.9
13:00 1021 30.15 850 25.1 26.8 80.2 30 7.9 46.1
13:05 1020 30.12 850 25.1 26.8 80.3 30 8.1 46.5
13:10 1020 30.12 850 25.1 28.3 82.9 28 8.3 47
13:15 1020 30.12 850 25.1 28.9 84 26 8 46.4
13:20 1020 30.12 849 25.07 28.6 83.6 27 8.1 46.7
13:25 1020 30.12 849 25.07 29.4 84.9 26 7.9 46.3
13:30 1020 30.12 849 25.07 28.9 84.1 25 7.4 45.3
13:35 1020 30.12 849 25.07 29.1 84.3 25 7.6 45.6
13:40 1020 30.12 849 25.07 29.5 85.1 25 7.8 46.1
13:45 1020 30.12 849 25.07 29.9 85.9 26 8.7 47.7
13:50 1020 30.12 849 25.07 29.8 85.7 25 7.7 45.9
13:55 1020 30.12 849 25.07 30.4 86.8 24 7.9 46.3
14:00 1020 30.12 849 25.07 29.9 85.9 25 8 46.4
14:05 1020 30.12 849 25.07 30.2 86.3 23 7.2 45
14:10 1020 30.12 849 25.07 29.1 84.3 26 7.8 46.1
14:15 1020 30.12 849 25.07 29.3 84.7 24 7.1 44.8
14:20 1020 30.12 849 25.07 30.4 86.8 23 7.5 45.5
14:25 1020 30.12 849 25.07 31 87.7 23 7.5 45.6
14:30 1020 30.12 849 25.07 31.3 88.3 23 7.8 46.1
14:35 1020 30.12 849 25.07 30.1 86.2 24 7.5 45.5
14:40 1019 30.09 849 25.07 30.4 86.8 24 7.8 46.1
14:45 1019 30.09 849 25.07 30.8 87.5 22 7 44.6
14:50 1019 30.09 849 25.07 31.2 88.2 23 7.9 46.3
14:55 1019 30.09 848 25.04 30.9 87.6 23 7.8 46.1
15:00 1019 30.09 848 25.04 32.1 89.9 21 7.6 45.7
15:05 1019 30.09 848 25.04 32.3 90.1 21 7.5 45.6
15:10 1019 30.09 848 25.04 31.6 88.8 21 6.8 44.2
15:15 1019 30.09 848 25.04 32.2 89.9 20 6.5 43.7
15:20 1019 30.09 848 25.04 32.8 91 20 6.9 44.4
15:25 1019 30.09 848 25.04 32.7 90.8 19 6.8 44.3
15:30 1019 30.09 848 25.04 32.8 91.1 20 7.1 44.9
15:35 1019 30.09 848 25.04 32.7 90.9 20 7 44.7
15:40 1019 30.09 848 25.04 32 89.7 19 5.9 42.7
15:45 1019 30.09 848 25.04 33 91.4 18 6.1 42.9
15:50 1019 30.09 848 25.04 33.1 91.6 17 5.6 42.2
15:55 1018 30.06 848 25.04 33.3 92 17 5.3 41.6
16:00 1018 30.06 848 25.04 32.9 91.1 18 5.6 42.2
16:05 1018 30.06 848 25.04 32.9 91.2 17 5.1 41.2
16:10 1018 30.06 848 25.04 33.3 92 16 4.7 40.5
16:15 1018 30.06 847 25.01 34 93.3 15 4.4 40
16:20 1018 30.06 847 25.01 33.6 92.4 17 5.2 41.4
16:25 1018 30.06 847 25.01 32.7 90.9 17 4.6 40.3
16:30 1018 30.06 847 25.01 32.8 91.1 15 3.6 38.5
16:35 1018 30.06 847 25.01 33.9 92.9 15 4.1 39.4
16:40 1018 30.06 847 25.01 34.5 94 15 4.7 40.5
16:45 1018 30.06 847 25.01 34.1 93.4 15 4.4 40
16:50 1018 30.06 847 25.01 33.2 91.8 15 3.5 38.2
16:55 1018 30.06 847 25.01 33.1 91.5 15 3.2 37.8
17:00 1018 30.06 847 25.01 32.9 91.2 18 5.7 42.2
17:05 1018 30.06 847 25.01 33 91.3 17 5.5 41.9
17:10 1018 30.06 847 25.01 33 91.4 17 5 41.1
17:15 1017 30.03 847 25.01 32.9 91.1 18 5.5 41.8
17:20 1017 30.03 847 25.01 32.9 91.1 15 3.5 38.3
17:25 1017 30.03 847 25.01 33 91.4 16 4.4 39.9
17:30 1017 30.03 846 24.98 32.8 91 17 4.6 40.2
17:35 1017 30.03 846 24.98 32.8 91.1 14 2.3 36.1
17:40 1017 30.03 846 24.98 32.9 91.3 15 3.7 38.7
17:45 1017 30.03 846 24.98 33.2 91.7 13 1.9 35.4
17:50 1017 30.03 846 24.98 33.3 91.9 14 3 37.4
17:55 1017 30.03 846 24.98 33.4 92.1 13 1.8 35.2
18:00 1017 30.03 846 24.98 33.4 92.1 13 1.2 34.2
18:05 1017 30.03 846 24.98 33.1 91.6 14 2.4 36.4
18:10 1017 30.03 846 24.98 33 91.5 14 2.3 36.1
18:15 1017 30.03 846 24.98 33.2 91.7 14 2.4 36.4
18:20 1017 30.03 846 24.98 33.5 92.3 16 4.3 39.7
18:25 1017 30.03 846 24.98 33.3 92 14 2.6 36.7
18:30 1017 30.03 846 24.98 33.3 92 14 3 37.4
18:35 1017 30.03 846 24.98 32.5 90.5 22 8.2 46.7
18:40 1017 30.03 846 24.98 31.4 88.6 25 9.1 48.4
18:45 1017 30.03 846 24.98 30.7 87.2 26 9.6 49.2
18:50 1017 30.03 846 24.98 30.1 86.2 28 9.7 49.4
18:55 1017 30.03 846 24.98 29.7 85.4 28 9.7 49.4
19:00 1017 30.03 846 24.98 29.3 84.7 29 9.7 49.4
19:05 1017 30.03 846 24.98 29 84.1 30 9.7 49.5
19:10 1017 30.03 846 24.98 28.6 83.5 30 9.5 49.2
19:15 1017 30.03 846 24.98 28.4 83.1 31 9.8 49.6
19:20 1017 30.03 846 24.98 28.1 82.6 31 9.6 49.2
19:25 1017 30.03 846 24.98 27.8 82.1 31 9.4 48.9
19:30 1017 30.03 846 24.98 27.7 81.8 30 9.1 48.3
19:35 1017 30.03 846 24.98 27.5 81.5 31 9.1 48.4
19:40 1017 30.03 846 24.98 27.4 81.4 31 9 48.3
19:45 1017 30.03 846 24.98 27.3 81.1 32 9.6 49.2
19:50 1017 30.03 846 24.98 27.5 81.5 29 8.4 47
19:55 1017 30.03 847 25.01 27.7 81.8 33 10.1 50.2
20:00 1018 30.06 847 25.01 27 80.6 33 9.9 49.8
20:05 1018 30.06 847 25.01 27.1 80.7 31 8.7 47.6
20:10 1018 30.06 847 25.01 27.4 81.3 26 6.5 43.6
20:15 1018 30.06 847 25.01 27.7 81.9 26 7 44.6
20:20 1018 30.06 847 25.01 27.4 81.3 22 4.3 39.7
20:25 1018 30.06 847 25.01 27.8 82 23 4.9 40.9
20:30 1018 30.06 848 25.04 27.8 82.1 22 4.8 40.6
20:35 1018 30.06 848 25.04 27.7 81.8 23 4.8 40.6
20:40 1019 30.09 848 25.04 27.5 81.6 22 4 39.3
20:45 1019 30.09 848 25.04 27.5 81.6 22 4.4 39.8
20:50 1018 30.06 848 25.04 27.5 81.5 22 4.1 39.5
20:55 1018 30.06 848 25.04 27.4 81.4 23 4.5 40.1
21:00 1018 30.06 848 25.04 27 80.7 24 4.9 40.9
21:05 1018 30.06 847 25.01 26.8 80.3 24 5 40.9
21:10 1018 30.06 847 25.01 26.7 80.1 25 5.1 41.2
21:15 1018 30.06 847 25.01 26.5 79.8 25 5.1 41.2
21:20 1018 30.06 847 25.01 26.5 79.6 24 4.4 39.9
21:25 1018 30.06 847 25.01 26.6 79.8 25 5 41
21:30 1018 30.06 847 25.01 26.2 79.1 23 4 39.1
21:35 1018 30.06 847 25.01 26.3 79.4 25 5 40.9
21:40 1018 30.06 847 25.01 26.2 79.2 23 3.7 38.7
21:45 1018 30.06 847 25.01 26.6 80 23 3.9 39.1
21:50 1018 30.06 847 25.01 26.6 80 21 3.1 37.6
21:55 1018 30.06 847 25.01 26.5 79.7 24 4.4 39.9
22:00 1018 30.06 847 25.01 26.4 79.6 23 4 39.2
22:05 1018 30.06 847 25.01 25.9 78.7 25 4.9 40.9
22:10 1018 30.06 847 25.01 25.4 77.6 26 4.9 40.8
22:15 1018 30.06 847 25.01 25 77.1 27 5.2 41.4
22:20 1018 30.06 847 25.01 24.7 76.5 28 5.4 41.8
22:25 1018 30.06 847 25.01 24.6 76.2 29 5.7 42.2
22:30 1018 30.06 847 25.01 24.4 75.9 30 6.1 42.9
22:35 1018 30.06 847 25.01 24.2 75.6 31 6.1 42.9
22:40 1017 30.03 847 25.01 24.1 75.5 31 6.1 43
22:45 1017 30.03 847 25.01 24.1 75.3 31 6.3 43.3
22:50 1017 30.03 847 25.01 24 75.2 31 6.2 43.1
22:55 1018 30.06 847 25.01 23.9 75.1 31 6.1 42.9
23:00 1018 30.06 847 25.01 23.8 74.8 31 5.9 42.6
23:05 1018 30.06 847 25.01 23.7 74.6 33 6.6 43.9
23:10 1018 30.06 847 25.01 23.6 74.4 32 6 42.7
23:15 1018 30.06 847 25.01 23.4 74.2 34 6.8 44.2
23:20 1018 30.06 847 25.01 23 73.4 34 6.4 43.6
23:25 1018 30.06 847 25.01 22.8 73 35 6.9 44.4
23:30 1018 30.06 847 25.01 22.5 72.5 37 7.1 44.8
23:35 1018 30.06 847 25.01 22.3 72.2 37 7.2 45
23:40 1018 30.06 847 25.01 22.3 72.1 35 6.4 43.5
23:45 1018 30.06 847 25.01 22.2 72 36 6.6 43.8
23:50 1018 30.06 848 25.04 22.1 71.8 36 6.4 43.5
23:55 1018 30.06 848 25.04 22.4 72.4 33 5.5 41.8
24:00 1019 30.09 848 25.04 22.8 73.1 34 6.4 43.5